sensor_id;sensor_type;location;lat;lon;timestamp;temperature;humidity
18541;DHT22;9400;50.924;5.328;2022-07-29T00:00:18;19.50;99.90
18541;DHT22;9400;50.924;5.328;2022-07-29T00:02:46;19.50;99.90
18541;DHT22;9400;50.924;5.328;2022-07-29T00:05:14;19.40;99.90
18541;DHT22;9400;50.924;5.328;2022-07-29T00:07:42;19.50;99.90
18541;DHT22;9400;50.924;5.328;2022-07-29T00:10:09;19.60;99.90
18541;DHT22;9400;50.924;5.328;2022-07-29T00:12:37;19.50;99.90
18541;DHT22;9400;50.924;5.328;2022-07-29T00:15:06;19.40;99.90
18541;DHT22;9400;50.924;5.328;2022-07-29T00:17:33;19.30;99.90
18541;DHT22;9400;50.924;5.328;2022-07-29T00:20:03;19.30;99.90
18541;DHT22;9400;50.924;5.328;2022-07-29T00:22:31;19.20;99.90
18541;DHT22;9400;50.924;5.328;2022-07-29T00:24:59;19.20;99.90
18541;DHT22;9400;50.924;5.328;2022-07-29T00:27:27;19.30;99.90
18541;DHT22;9400;50.924;5.328;2022-07-29T00:29:54;19.30;99.90
18541;DHT22;9400;50.924;5.328;2022-07-29T00:32:22;19.20;99.90
18541;DHT22;9400;50.924;5.328;2022-07-29T00:34:50;19.10;99.90
18541;DHT22;9400;50.924;5.328;2022-07-29T00:37:36;19.00;99.90
18541;DHT22;9400;50.924;5.328;2022-07-29T00:40:05;18.90;99.90
18541;DHT22;9400;50.924;5.328;2022-07-29T00:42:42;19.10;99.90
18541;DHT22;9400;50.924;5.328;2022-07-29T00:45:13;19.00;99.90
18541;DHT22;9400;50.924;5.328;2022-07-29T00:47:40;18.90;99.90
18541;DHT22;9400;50.924;5.328;2022-07-29T00:50:10;18.90;99.90
18541;DHT22;9400;50.924;5.328;2022-07-29T00:52:41;18.90;99.90
18541;DHT22;9400;50.924;5.328;2022-07-29T00:55:10;18.80;99.90
18541;DHT22;9400;50.924;5.328;2022-07-29T00:57:39;18.90;99.90
18541;DHT22;9400;50.924;5.328;2022-07-29T01:00:09;19.00;99.90
18541;DHT22;9400;50.924;5.328;2022-07-29T01:02:37;19.00;99.90
18541;DHT22;9400;50.924;5.328;2022-07-29T01:05:05;19.00;99.90
18541;DHT22;9400;50.924;5.328;2022-07-29T01:07:34;19.00;99.90
18541;DHT22;9400;50.924;5.328;2022-07-29T01:10:06;19.10;99.90
18541;DHT22;9400;50.924;5.328;2022-07-29T01:12:36;19.10;99.90
18541;DHT22;9400;50.924;5.328;2022-07-29T01:15:06;19.10;99.90
18541;DHT22;9400;50.924;5.328;2022-07-29T01:17:38;19.10;99.90
18541;DHT22;9400;50.924;5.328;2022-07-29T01:20:13;19.10;99.90
18541;DHT22;9400;50.924;5.328;2022-07-29T01:23:06;18.90;99.90
18541;DHT22;9400;50.924;5.328;2022-07-29T01:26:07;18.90;99.90
18541;DHT22;9400;50.924;5.328;2022-07-29T01:28:47;18.80;99.90
18541;DHT22;9400;50.924;5.328;2022-07-29T01:31:20;18.90;99.90
18541;DHT22;9400;50.924;5.328;2022-07-29T01:33:52;18.90;99.90
18541;DHT22;9400;50.924;5.328;2022-07-29T01:36:30;18.90;99.90
18541;DHT22;9400;50.924;5.328;2022-07-29T01:39:05;18.80;99.90
18541;DHT22;9400;50.924;5.328;2022-07-29T01:41:35;18.70;99.90
18541;DHT22;9400;50.924;5.328;2022-07-29T01:44:12;18.50;99.90
18541;DHT22;9400;50.924;5.328;2022-07-29T01:46:48;18.40;99.90
18541;DHT22;9400;50.924;5.328;2022-07-29T01:49:20;18.10;99.90
18541;DHT22;9400;50.924;5.328;2022-07-29T01:51:51;18.00;99.90
18541;DHT22;9400;50.924;5.328;2022-07-29T01:54:28;18.00;99.90
18541;DHT22;9400;50.924;5.328;2022-07-29T01:56:59;18.10;99.90
18541;DHT22;9400;50.924;5.328;2022-07-29T01:59:29;18.10;99.90
18541;DHT22;9400;50.924;5.328;2022-07-29T02:01:59;18.20;99.90
18541;DHT22;9400;50.924;5.328;2022-07-29T02:04:30;18.20;99.90
18541;DHT22;9400;50.924;5.328;2022-07-29T02:07:02;18.10;99.90
18541;DHT22;9400;50.924;5.328;2022-07-29T02:09:33;18.10;99.90
18541;DHT22;9400;50.924;5.328;2022-07-29T02:12:04;18.00;99.90
18541;DHT22;9400;50.924;5.328;2022-07-29T02:14:40;17.90;99.90
18541;DHT22;9400;50.924;5.328;2022-07-29T02:17:08;17.80;99.90
18541;DHT22;9400;50.924;5.328;2022-07-29T02:19:37;17.80;99.90
18541;DHT22;9400;50.924;5.328;2022-07-29T02:22:06;17.80;99.90
18541;DHT22;9400;50.924;5.328;2022-07-29T02:24:37;17.90;99.90
18541;DHT22;9400;50.924;5.328;2022-07-29T02:27:07;17.90;99.90
18541;DHT22;9400;50.924;5.328;2022-07-29T02:29:37;17.80;99.90
18541;DHT22;9400;50.924;5.328;2022-07-29T02:32:07;18.00;99.90
18541;DHT22;9400;50.924;5.328;2022-07-29T02:34:38;18.10;99.90
18541;DHT22;9400;50.924;5.328;2022-07-29T02:37:08;18.10;99.90
18541;DHT22;9400;50.924;5.328;2022-07-29T02:39:37;18.20;99.90
18541;DHT22;9400;50.924;5.328;2022-07-29T02:42:10;18.20;99.90
18541;DHT22;9400;50.924;5.328;2022-07-29T02:44:39;18.00;99.90
18541;DHT22;9400;50.924;5.328;2022-07-29T02:47:13;18.10;99.90
18541;DHT22;9400;50.924;5.328;2022-07-29T02:49:49;18.10;99.90
18541;DHT22;9400;50.924;5.328;2022-07-29T02:52:23;18.10;99.90
18541;DHT22;9400;50.924;5.328;2022-07-29T02:54:55;18.20;99.90
18541;DHT22;9400;50.924;5.328;2022-07-29T02:57:30;18.10;99.90
18541;DHT22;9400;50.924;5.328;2022-07-29T03:00:05;18.20;99.90
18541;DHT22;9400;50.924;5.328;2022-07-29T03:02:36;18.30;99.90
18541;DHT22;9400;50.924;5.328;2022-07-29T03:05:06;18.40;99.90
18541;DHT22;9400;50.924;5.328;2022-07-29T03:07:34;18.40;99.90
18541;DHT22;9400;50.924;5.328;2022-07-29T03:10:03;18.30;99.90
18541;DHT22;9400;50.924;5.328;2022-07-29T03:12:32;18.10;99.90
18541;DHT22;9400;50.924;5.328;2022-07-29T03:15:01;18.10;99.90
18541;DHT22;9400;50.924;5.328;2022-07-29T03:17:30;18.00;99.90
18541;DHT22;9400;50.924;5.328;2022-07-29T03:19:59;18.20;99.90
18541;DHT22;9400;50.924;5.328;2022-07-29T03:22:27;18.20;99.90
18541;DHT22;9400;50.924;5.328;2022-07-29T03:24:55;18.30;99.90
18541;DHT22;9400;50.924;5.328;2022-07-29T03:27:22;18.30;99.90
18541;DHT22;9400;50.924;5.328;2022-07-29T03:29:53;18.30;99.90
18541;DHT22;9400;50.924;5.328;2022-07-29T03:32:22;18.20;99.90
18541;DHT22;9400;50.924;5.328;2022-07-29T03:34:50;18.20;99.90
18541;DHT22;9400;50.924;5.328;2022-07-29T03:37:17;18.10;99.90
18541;DHT22;9400;50.924;5.328;2022-07-29T03:39:46;18.00;99.90
18541;DHT22;9400;50.924;5.328;2022-07-29T03:42:15;18.00;99.90
18541;DHT22;9400;50.924;5.328;2022-07-29T03:44:46;18.10;99.90
18541;DHT22;9400;50.924;5.328;2022-07-29T03:47:15;18.20;99.90
18541;DHT22;9400;50.924;5.328;2022-07-29T03:49:48;18.30;99.90
18541;DHT22;9400;50.924;5.328;2022-07-29T03:52:18;18.30;99.90
18541;DHT22;9400;50.924;5.328;2022-07-29T03:54:46;18.30;99.90
18541;DHT22;9400;50.924;5.328;2022-07-29T03:57:16;18.20;99.90
18541;DHT22;9400;50.924;5.328;2022-07-29T03:59:46;18.20;99.90
18541;DHT22;9400;50.924;5.328;2022-07-29T04:02:29;18.20;99.90
18541;DHT22;9400;50.924;5.328;2022-07-29T04:04:57;18.30;99.90
18541;DHT22;9400;50.924;5.328;2022-07-29T04:07:26;18.30;99.90
18541;DHT22;9400;50.924;5.328;2022-07-29T04:09:55;18.20;99.90
18541;DHT22;9400;50.924;5.328;2022-07-29T04:12:22;18.30;99.90
18541;DHT22;9400;50.924;5.328;2022-07-29T04:14:50;18.30;99.90
18541;DHT22;9400;50.924;5.328;2022-07-29T04:17:17;18.30;99.90
18541;DHT22;9400;50.924;5.328;2022-07-29T04:19:46;18.30;99.90
18541;DHT22;9400;50.924;5.328;2022-07-29T04:22:14;18.20;99.90
18541;DHT22;9400;50.924;5.328;2022-07-29T04:24:41;18.20;99.90
18541;DHT22;9400;50.924;5.328;2022-07-29T04:27:09;18.10;99.90
18541;DHT22;9400;50.924;5.328;2022-07-29T04:29:37;18.10;99.90
18541;DHT22;9400;50.924;5.328;2022-07-29T04:32:05;18.10;99.90
18541;DHT22;9400;50.924;5.328;2022-07-29T04:34:33;18.10;99.90
18541;DHT22;9400;50.924;5.328;2022-07-29T04:37:02;18.00;99.90
18541;DHT22;9400;50.924;5.328;2022-07-29T04:39:30;18.00;99.90
18541;DHT22;9400;50.924;5.328;2022-07-29T04:41:58;18.00;99.90
18541;DHT22;9400;50.924;5.328;2022-07-29T04:44:25;17.90;99.90
18541;DHT22;9400;50.924;5.328;2022-07-29T04:46:55;17.90;99.90
18541;DHT22;9400;50.924;5.328;2022-07-29T04:49:23;17.80;99.90
18541;DHT22;9400;50.924;5.328;2022-07-29T04:51:50;17.70;99.90
18541;DHT22;9400;50.924;5.328;2022-07-29T04:54:19;17.60;99.90
18541;DHT22;9400;50.924;5.328;2022-07-29T04:56:47;17.50;99.90
18541;DHT22;9400;50.924;5.328;2022-07-29T04:59:15;17.50;99.90
18541;DHT22;9400;50.924;5.328;2022-07-29T05:01:42;17.50;99.90
18541;DHT22;9400;50.924;5.328;2022-07-29T05:04:10;17.50;99.90
18541;DHT22;9400;50.924;5.328;2022-07-29T05:06:38;17.40;99.90
18541;DHT22;9400;50.924;5.328;2022-07-29T05:09:05;17.30;99.90
18541;DHT22;9400;50.924;5.328;2022-07-29T05:11:34;17.20;99.90
18541;DHT22;9400;50.924;5.328;2022-07-29T05:14:02;17.20;99.90
18541;DHT22;9400;50.924;5.328;2022-07-29T05:16:30;17.10;99.90
18541;DHT22;9400;50.924;5.328;2022-07-29T05:18:57;17.00;99.90
18541;DHT22;9400;50.924;5.328;2022-07-29T05:21:25;17.00;99.90
18541;DHT22;9400;50.924;5.328;2022-07-29T05:23:52;16.90;99.90
18541;DHT22;9400;50.924;5.328;2022-07-29T05:26:20;17.00;99.90
18541;DHT22;9400;50.924;5.328;2022-07-29T05:28:49;17.10;99.90
18541;DHT22;9400;50.924;5.328;2022-07-29T05:31:17;17.20;99.90
18541;DHT22;9400;50.924;5.328;2022-07-29T05:33:45;17.20;99.90
18541;DHT22;9400;50.924;5.328;2022-07-29T05:36:12;17.30;99.90
18541;DHT22;9400;50.924;5.328;2022-07-29T05:38:40;17.10;99.90
18541;DHT22;9400;50.924;5.328;2022-07-29T05:41:07;17.20;99.90
18541;DHT22;9400;50.924;5.328;2022-07-29T05:43:35;17.20;99.90
18541;DHT22;9400;50.924;5.328;2022-07-29T05:46:04;17.20;99.90
18541;DHT22;9400;50.924;5.328;2022-07-29T05:48:31;17.30;99.90
18541;DHT22;9400;50.924;5.328;2022-07-29T05:50:59;17.20;99.90
18541;DHT22;9400;50.924;5.328;2022-07-29T05:53:27;17.30;99.90
18541;DHT22;9400;50.924;5.328;2022-07-29T05:55:54;17.40;99.90
18541;DHT22;9400;50.924;5.328;2022-07-29T05:58:22;17.50;99.90
18541;DHT22;9400;50.924;5.328;2022-07-29T06:00:50;17.50;99.90
18541;DHT22;9400;50.924;5.328;2022-07-29T06:03:20;17.60;99.90
18541;DHT22;9400;50.924;5.328;2022-07-29T06:05:47;17.70;99.90
18541;DHT22;9400;50.924;5.328;2022-07-29T06:08:15;17.60;99.90
18541;DHT22;9400;50.924;5.328;2022-07-29T06:10:43;17.70;99.90
18541;DHT22;9400;50.924;5.328;2022-07-29T06:13:11;17.70;99.90
18541;DHT22;9400;50.924;5.328;2022-07-29T06:15:38;17.70;99.90
18541;DHT22;9400;50.924;5.328;2022-07-29T06:18:06;17.70;99.90
18541;DHT22;9400;50.924;5.328;2022-07-29T06:20:37;17.60;99.90
18541;DHT22;9400;50.924;5.328;2022-07-29T06:23:05;17.70;99.90
18541;DHT22;9400;50.924;5.328;2022-07-29T06:25:33;17.80;99.90
18541;DHT22;9400;50.924;5.328;2022-07-29T06:28:03;17.70;99.90
18541;DHT22;9400;50.924;5.328;2022-07-29T06:30:30;17.80;99.90
18541;DHT22;9400;50.924;5.328;2022-07-29T06:32:58;17.80;99.90
18541;DHT22;9400;50.924;5.328;2022-07-29T06:35:26;17.80;99.90
18541;DHT22;9400;50.924;5.328;2022-07-29T06:37:55;18.00;99.90
18541;DHT22;9400;50.924;5.328;2022-07-29T06:40:22;18.00;99.90
18541;DHT22;9400;50.924;5.328;2022-07-29T06:43:07;18.20;99.90
18541;DHT22;9400;50.924;5.328;2022-07-29T06:45:35;18.20;99.90
18541;DHT22;9400;50.924;5.328;2022-07-29T06:48:04;18.30;99.90
18541;DHT22;9400;50.924;5.328;2022-07-29T06:50:32;18.30;99.90
18541;DHT22;9400;50.924;5.328;2022-07-29T06:53:01;18.20;99.90
18541;DHT22;9400;50.924;5.328;2022-07-29T06:55:29;18.20;99.90
18541;DHT22;9400;50.924;5.328;2022-07-29T06:57:56;18.20;99.90
18541;DHT22;9400;50.924;5.328;2022-07-29T07:00:24;18.00;99.90
18541;DHT22;9400;50.924;5.328;2022-07-29T07:02:52;18.20;99.90
18541;DHT22;9400;50.924;5.328;2022-07-29T07:05:20;18.30;99.90
18541;DHT22;9400;50.924;5.328;2022-07-29T07:07:47;18.30;99.90
18541;DHT22;9400;50.924;5.328;2022-07-29T07:10:16;18.40;99.90
18541;DHT22;9400;50.924;5.328;2022-07-29T07:12:45;18.40;99.90
18541;DHT22;9400;50.924;5.328;2022-07-29T07:15:13;18.60;99.90
18541;DHT22;9400;50.924;5.328;2022-07-29T07:17:40;18.60;99.90
18541;DHT22;9400;50.924;5.328;2022-07-29T07:20:09;18.70;99.90
18541;DHT22;9400;50.924;5.328;2022-07-29T07:22:36;18.80;99.90
18541;DHT22;9400;50.924;5.328;2022-07-29T07:25:04;18.80;99.90
18541;DHT22;9400;50.924;5.328;2022-07-29T07:27:33;19.10;99.90
18541;DHT22;9400;50.924;5.328;2022-07-29T07:30:02;19.20;99.90
18541;DHT22;9400;50.924;5.328;2022-07-29T07:32:31;19.30;99.90
18541;DHT22;9400;50.924;5.328;2022-07-29T07:34:59;19.30;99.90
18541;DHT22;9400;50.924;5.328;2022-07-29T07:37:26;19.30;99.90
18541;DHT22;9400;50.924;5.328;2022-07-29T07:39:54;19.40;99.90
18541;DHT22;9400;50.924;5.328;2022-07-29T07:42:22;19.40;99.90
18541;DHT22;9400;50.924;5.328;2022-07-29T07:44:51;19.40;99.90
18541;DHT22;9400;50.924;5.328;2022-07-29T07:47:19;19.40;99.90
18541;DHT22;9400;50.924;5.328;2022-07-29T07:49:47;19.40;99.90
18541;DHT22;9400;50.924;5.328;2022-07-29T07:52:15;19.30;99.90
18541;DHT22;9400;50.924;5.328;2022-07-29T07:54:43;19.40;99.90
18541;DHT22;9400;50.924;5.328;2022-07-29T07:57:11;19.60;99.90
18541;DHT22;9400;50.924;5.328;2022-07-29T07:59:39;19.60;99.90
18541;DHT22;9400;50.924;5.328;2022-07-29T08:02:09;19.70;99.90
18541;DHT22;9400;50.924;5.328;2022-07-29T08:04:37;20.00;99.90
18541;DHT22;9400;50.924;5.328;2022-07-29T08:07:07;20.20;99.90
18541;DHT22;9400;50.924;5.328;2022-07-29T08:09:35;20.40;99.90
18541;DHT22;9400;50.924;5.328;2022-07-29T08:12:04;20.40;99.90
18541;DHT22;9400;50.924;5.328;2022-07-29T08:14:32;20.60;99.90
18541;DHT22;9400;50.924;5.328;2022-07-29T08:17:00;20.60;99.90
18541;DHT22;9400;50.924;5.328;2022-07-29T08:19:29;20.40;99.90
18541;DHT22;9400;50.924;5.328;2022-07-29T08:21:57;20.60;99.90
18541;DHT22;9400;50.924;5.328;2022-07-29T08:24:24;20.80;99.90
18541;DHT22;9400;50.924;5.328;2022-07-29T08:27:10;20.90;99.90
18541;DHT22;9400;50.924;5.328;2022-07-29T08:29:37;20.80;99.90
18541;DHT22;9400;50.924;5.328;2022-07-29T08:32:05;21.10;99.90
18541;DHT22;9400;50.924;5.328;2022-07-29T08:34:34;21.20;99.90
18541;DHT22;9400;50.924;5.328;2022-07-29T08:37:02;21.20;99.90
18541;DHT22;9400;50.924;5.328;2022-07-29T08:39:29;21.10;99.90
18541;DHT22;9400;50.924;5.328;2022-07-29T08:41:57;21.30;99.90
18541;DHT22;9400;50.924;5.328;2022-07-29T08:44:24;21.40;99.90
18541;DHT22;9400;50.924;5.328;2022-07-29T08:46:52;21.50;99.90
18541;DHT22;9400;50.924;5.328;2022-07-29T08:49:20;21.50;99.90
18541;DHT22;9400;50.924;5.328;2022-07-29T08:51:49;21.40;99.90
18541;DHT22;9400;50.924;5.328;2022-07-29T08:54:18;21.50;99.90
18541;DHT22;9400;50.924;5.328;2022-07-29T08:56:48;21.50;99.90
18541;DHT22;9400;50.924;5.328;2022-07-29T08:59:19;21.60;99.90
18541;DHT22;9400;50.924;5.328;2022-07-29T09:01:48;21.70;99.90
18541;DHT22;9400;50.924;5.328;2022-07-29T09:04:20;21.60;99.90
18541;DHT22;9400;50.924;5.328;2022-07-29T09:06:51;21.60;99.90
18541;DHT22;9400;50.924;5.328;2022-07-29T09:09:20;21.90;99.90
18541;DHT22;9400;50.924;5.328;2022-07-29T09:11:48;22.10;99.90
18541;DHT22;9400;50.924;5.328;2022-07-29T09:14:16;22.20;99.90
18541;DHT22;9400;50.924;5.328;2022-07-29T09:16:46;22.20;99.90
18541;DHT22;9400;50.924;5.328;2022-07-29T09:19:28;22.30;99.90
18541;DHT22;9400;50.924;5.328;2022-07-29T09:21:59;22.30;99.90
18541;DHT22;9400;50.924;5.328;2022-07-29T09:24:39;22.10;99.90
18541;DHT22;9400;50.924;5.328;2022-07-29T09:27:21;22.50;99.90
18541;DHT22;9400;50.924;5.328;2022-07-29T09:30:03;22.70;99.90
18541;DHT22;9400;50.924;5.328;2022-07-29T09:32:32;22.70;99.90
18541;DHT22;9400;50.924;5.328;2022-07-29T09:35:17;22.80;99.90
18541;DHT22;9400;50.924;5.328;2022-07-29T09:37:47;22.70;99.90
18541;DHT22;9400;50.924;5.328;2022-07-29T09:40:16;22.90;99.90
18541;DHT22;9400;50.924;5.328;2022-07-29T09:42:44;23.00;99.90
18541;DHT22;9400;50.924;5.328;2022-07-29T09:45:13;23.20;99.90
18541;DHT22;9400;50.924;5.328;2022-07-29T09:47:53;22.90;99.90
18541;DHT22;9400;50.924;5.328;2022-07-29T09:50:21;22.80;99.90
18541;DHT22;9400;50.924;5.328;2022-07-29T09:52:53;23.00;99.90
18541;DHT22;9400;50.924;5.328;2022-07-29T09:55:20;23.40;99.90
18541;DHT22;9400;50.924;5.328;2022-07-29T09:57:48;23.60;99.90
18541;DHT22;9400;50.924;5.328;2022-07-29T10:00:17;23.50;99.90
18541;DHT22;9400;50.924;5.328;2022-07-29T10:02:46;23.70;99.90
18541;DHT22;9400;50.924;5.328;2022-07-29T10:05:19;23.80;99.90
18541;DHT22;9400;50.924;5.328;2022-07-29T10:07:49;24.10;99.90
18541;DHT22;9400;50.924;5.328;2022-07-29T10:10:23;24.10;99.90
18541;DHT22;9400;50.924;5.328;2022-07-29T10:12:55;24.50;99.90
18541;DHT22;9400;50.924;5.328;2022-07-29T10:15:25;24.50;99.90
18541;DHT22;9400;50.924;5.328;2022-07-29T10:17:57;24.30;99.90
18541;DHT22;9400;50.924;5.328;2022-07-29T10:20:25;24.30;99.90
18541;DHT22;9400;50.924;5.328;2022-07-29T10:22:54;24.20;99.90
18541;DHT22;9400;50.924;5.328;2022-07-29T10:25:24;24.30;99.90
18541;DHT22;9400;50.924;5.328;2022-07-29T10:27:52;24.40;99.90
18541;DHT22;9400;50.924;5.328;2022-07-29T10:30:22;24.50;99.90
18541;DHT22;9400;50.924;5.328;2022-07-29T10:33:14;24.40;99.90
18541;DHT22;9400;50.924;5.328;2022-07-29T10:35:59;24.50;99.90
18541;DHT22;9400;50.924;5.328;2022-07-29T10:38:50;24.70;99.90
18541;DHT22;9400;50.924;5.328;2022-07-29T10:41:37;25.00;99.90
18541;DHT22;9400;50.924;5.328;2022-07-29T10:44:13;25.00;99.90
18541;DHT22;9400;50.924;5.328;2022-07-29T10:46:42;25.20;99.90
18541;DHT22;9400;50.924;5.328;2022-07-29T10:49:12;25.60;99.90
18541;DHT22;9400;50.924;5.328;2022-07-29T10:52:00;25.80;99.90
18541;DHT22;9400;50.924;5.328;2022-07-29T10:54:51;25.60;99.90
18541;DHT22;9400;50.924;5.328;2022-07-29T10:57:26;25.50;99.90
18541;DHT22;9400;50.924;5.328;2022-07-29T11:02:56;26.00;99.90
18541;DHT22;9400;50.924;5.328;2022-07-29T11:05:24;26.10;99.90
18541;DHT22;9400;50.924;5.328;2022-07-29T11:08:21;26.00;99.90
18541;DHT22;9400;50.924;5.328;2022-07-29T11:10:53;26.00;99.90
18541;DHT22;9400;50.924;5.328;2022-07-29T11:13:50;26.20;99.90
18541;DHT22;9400;50.924;5.328;2022-07-29T11:16:21;26.50;99.90
18541;DHT22;9400;50.924;5.328;2022-07-29T11:19:20;26.90;99.90
18541;DHT22;9400;50.924;5.328;2022-07-29T11:21:48;27.10;99.90
18541;DHT22;9400;50.924;5.328;2022-07-29T11:24:20;26.80;99.90
18541;DHT22;9400;50.924;5.328;2022-07-29T11:27:13;27.20;99.90
18541;DHT22;9400;50.924;5.328;2022-07-29T11:29:51;27.10;99.90
18541;DHT22;9400;50.924;5.328;2022-07-29T11:32:20;27.20;99.90
18541;DHT22;9400;50.924;5.328;2022-07-29T11:34:48;27.20;99.90
18541;DHT22;9400;50.924;5.328;2022-07-29T11:37:23;27.10;99.90
18541;DHT22;9400;50.924;5.328;2022-07-29T11:40:16;27.60;99.90
18541;DHT22;9400;50.924;5.328;2022-07-29T11:42:46;28.30;99.90
18541;DHT22;9400;50.924;5.328;2022-07-29T11:45:20;27.50;99.90
18541;DHT22;9400;50.924;5.328;2022-07-29T11:47:55;27.00;99.90
18541;DHT22;9400;50.924;5.328;2022-07-29T11:50:29;27.10;99.90
18541;DHT22;9400;50.924;5.328;2022-07-29T11:52:58;26.40;99.90
18541;DHT22;9400;50.924;5.328;2022-07-29T11:55:25;26.30;99.90
18541;DHT22;9400;50.924;5.328;2022-07-29T11:57:54;26.10;99.90
18541;DHT22;9400;50.924;5.328;2022-07-29T12:00:29;26.20;99.90
18541;DHT22;9400;50.924;5.328;2022-07-29T12:02:59;27.00;99.90
18541;DHT22;9400;50.924;5.328;2022-07-29T12:05:35;27.40;99.90
18541;DHT22;9400;50.924;5.328;2022-07-29T12:08:12;27.80;99.90
18541;DHT22;9400;50.924;5.328;2022-07-29T12:10:42;28.20;99.90
18541;DHT22;9400;50.924;5.328;2022-07-29T12:13:11;28.90;99.90
18541;DHT22;9400;50.924;5.328;2022-07-29T12:15:41;29.20;99.90
18541;DHT22;9400;50.924;5.328;2022-07-29T12:18:14;28.70;99.90
18541;DHT22;9400;50.924;5.328;2022-07-29T12:20:43;28.00;99.90
18541;DHT22;9400;50.924;5.328;2022-07-29T12:23:10;27.70;99.90
18541;DHT22;9400;50.924;5.328;2022-07-29T12:25:40;27.50;99.90
18541;DHT22;9400;50.924;5.328;2022-07-29T12:28:09;28.10;99.90
18541;DHT22;9400;50.924;5.328;2022-07-29T12:30:43;29.00;99.90
18541;DHT22;9400;50.924;5.328;2022-07-29T12:33:13;29.40;99.90
18541;DHT22;9400;50.924;5.328;2022-07-29T12:35:43;29.20;99.90
18541;DHT22;9400;50.924;5.328;2022-07-29T12:38:12;29.30;99.90
18541;DHT22;9400;50.924;5.328;2022-07-29T12:40:40;29.40;99.90
18541;DHT22;9400;50.924;5.328;2022-07-29T12:43:09;30.60;99.90
18541;DHT22;9400;50.924;5.328;2022-07-29T12:45:37;31.40;99.90
18541;DHT22;9400;50.924;5.328;2022-07-29T12:48:07;32.00;99.90
18541;DHT22;9400;50.924;5.328;2022-07-29T12:50:36;31.50;99.90
18541;DHT22;9400;50.924;5.328;2022-07-29T12:53:11;30.00;99.90
18541;DHT22;9400;50.924;5.328;2022-07-29T12:55:43;29.10;99.90
18541;DHT22;9400;50.924;5.328;2022-07-29T12:58:30;28.70;99.90
18541;DHT22;9400;50.924;5.328;2022-07-29T13:01:02;28.50;99.90
18541;DHT22;9400;50.924;5.328;2022-07-29T13:03:43;28.10;99.90
18541;DHT22;9400;50.924;5.328;2022-07-29T13:09:11;28.00;99.90
18541;DHT22;9400;50.924;5.328;2022-07-29T13:11:41;28.10;99.90
18541;DHT22;9400;50.924;5.328;2022-07-29T13:14:10;29.30;99.90
18541;DHT22;9400;50.924;5.328;2022-07-29T13:17:02;30.50;99.90
18541;DHT22;9400;50.924;5.328;2022-07-29T13:19:37;31.00;99.90
18541;DHT22;9400;50.924;5.328;2022-07-29T13:22:06;30.20;99.90
18541;DHT22;9400;50.924;5.328;2022-07-29T13:24:45;29.30;99.90
18541;DHT22;9400;50.924;5.328;2022-07-29T13:27:14;28.80;99.90
18541;DHT22;9400;50.924;5.328;2022-07-29T13:29:43;28.60;99.90
18541;DHT22;9400;50.924;5.328;2022-07-29T13:32:11;28.30;99.90
18541;DHT22;9400;50.924;5.328;2022-07-29T13:34:40;27.90;99.90
18541;DHT22;9400;50.924;5.328;2022-07-29T13:37:08;27.90;99.90
18541;DHT22;9400;50.924;5.328;2022-07-29T13:39:36;29.60;99.90
18541;DHT22;9400;50.924;5.328;2022-07-29T13:42:03;30.90;99.90
18541;DHT22;9400;50.924;5.328;2022-07-29T13:44:31;31.40;99.90
18541;DHT22;9400;50.924;5.328;2022-07-29T13:46:59;33.10;99.90
18541;DHT22;9400;50.924;5.328;2022-07-29T13:49:27;33.10;99.90
18541;DHT22;9400;50.924;5.328;2022-07-29T13:51:56;33.30;99.90
18541;DHT22;9400;50.924;5.328;2022-07-29T13:54:23;31.70;99.90
18541;DHT22;9400;50.924;5.328;2022-07-29T13:56:51;31.60;99.90
18541;DHT22;9400;50.924;5.328;2022-07-29T13:59:19;32.90;99.90
18541;DHT22;9400;50.924;5.328;2022-07-29T14:01:46;33.10;99.90
18541;DHT22;9400;50.924;5.328;2022-07-29T14:04:14;32.00;99.90
18541;DHT22;9400;50.924;5.328;2022-07-29T14:06:42;32.40;99.90
18541;DHT22;9400;50.924;5.328;2022-07-29T14:09:10;33.40;99.90
18541;DHT22;9400;50.924;5.328;2022-07-29T14:11:39;34.30;99.90
18541;DHT22;9400;50.924;5.328;2022-07-29T14:14:06;34.20;99.90
18541;DHT22;9400;50.924;5.328;2022-07-29T14:16:34;34.60;99.90
18541;DHT22;9400;50.924;5.328;2022-07-29T14:19:02;34.30;99.90
18541;DHT22;9400;50.924;5.328;2022-07-29T14:21:29;34.00;99.90
18541;DHT22;9400;50.924;5.328;2022-07-29T14:23:57;34.80;99.90
18541;DHT22;9400;50.924;5.328;2022-07-29T14:26:26;34.90;99.90
18541;DHT22;9400;50.924;5.328;2022-07-29T14:28:54;35.10;99.90
18541;DHT22;9400;50.924;5.328;2022-07-29T14:31:21;35.10;99.90
18541;DHT22;9400;50.924;5.328;2022-07-29T14:33:49;35.00;99.90
18541;DHT22;9400;50.924;5.328;2022-07-29T14:36:16;35.40;99.90
18541;DHT22;9400;50.924;5.328;2022-07-29T14:38:44;35.20;99.90
18541;DHT22;9400;50.924;5.328;2022-07-29T14:41:12;35.00;99.90
18541;DHT22;9400;50.924;5.328;2022-07-29T14:43:41;33.40;99.90
18541;DHT22;9400;50.924;5.328;2022-07-29T14:46:08;34.30;99.90
18541;DHT22;9400;50.924;5.328;2022-07-29T14:48:36;34.60;99.90
18541;DHT22;9400;50.924;5.328;2022-07-29T14:51:04;35.00;99.90
18541;DHT22;9400;50.924;5.328;2022-07-29T14:53:32;35.20;99.90
18541;DHT22;9400;50.924;5.328;2022-07-29T14:56:00;34.30;99.90
18541;DHT22;9400;50.924;5.328;2022-07-29T14:58:27;33.20;99.90
18541;DHT22;9400;50.924;5.328;2022-07-29T15:00:56;32.00;99.90
18541;DHT22;9400;50.924;5.328;2022-07-29T15:03:24;31.00;99.90
18541;DHT22;9400;50.924;5.328;2022-07-29T15:05:52;30.60;99.90
18541;DHT22;9400;50.924;5.328;2022-07-29T15:08:20;30.60;99.90
18541;DHT22;9400;50.924;5.328;2022-07-29T15:10:47;30.40;99.90
18541;DHT22;9400;50.924;5.328;2022-07-29T15:13:15;30.40;99.90
18541;DHT22;9400;50.924;5.328;2022-07-29T15:15:42;30.60;99.90
18541;DHT22;9400;50.924;5.328;2022-07-29T15:18:12;31.00;99.90
18541;DHT22;9400;50.924;5.328;2022-07-29T15:20:40;32.90;99.90
18541;DHT22;9400;50.924;5.328;2022-07-29T15:23:07;34.60;99.90
18541;DHT22;9400;50.924;5.328;2022-07-29T15:25:35;35.40;99.90
18541;DHT22;9400;50.924;5.328;2022-07-29T15:28:03;34.40;99.90
18541;DHT22;9400;50.924;5.328;2022-07-29T15:30:33;32.60;99.90
18541;DHT22;9400;50.924;5.328;2022-07-29T15:33:02;31.50;99.90
18541;DHT22;9400;50.924;5.328;2022-07-29T15:35:32;30.90;99.90
18541;DHT22;9400;50.924;5.328;2022-07-29T15:38:00;30.80;99.90
18541;DHT22;9400;50.924;5.328;2022-07-29T15:40:27;30.70;99.90
18541;DHT22;9400;50.924;5.328;2022-07-29T15:42:56;30.30;99.90
18541;DHT22;9400;50.924;5.328;2022-07-29T15:45:26;30.10;99.90
18541;DHT22;9400;50.924;5.328;2022-07-29T15:47:55;29.50;99.90
18541;DHT22;9400;50.924;5.328;2022-07-29T15:50:22;29.30;99.90
18541;DHT22;9400;50.924;5.328;2022-07-29T15:52:51;29.20;99.90
18541;DHT22;9400;50.924;5.328;2022-07-29T15:55:19;29.20;99.90
18541;DHT22;9400;50.924;5.328;2022-07-29T15:57:46;29.20;99.90
18541;DHT22;9400;50.924;5.328;2022-07-29T16:00:14;29.20;99.90
18541;DHT22;9400;50.924;5.328;2022-07-29T16:02:43;29.00;99.90
18541;DHT22;9400;50.924;5.328;2022-07-29T16:05:11;28.70;99.90
18541;DHT22;9400;50.924;5.328;2022-07-29T16:07:39;28.60;99.90
18541;DHT22;9400;50.924;5.328;2022-07-29T16:10:09;28.50;99.90